Point Venture, Texas
Current Conditions -  °F | °C
As of 3:35 AM on Thursday 23 Oct 2014 (Local Time) from KRYW Reporting Station
Scattered Clouds Scattered Clouds  
Wind Chill: 68°   Ceiling: Unl
Heat Index: 68°   Visibility: 10mi
Dew Point: 58°   Wind: 3mph
Humidity: 70%   Direction: 200°SSW
Pressure: 30.13"   Gusts: NA
Location:  30.4521°N, 97.9683°W
Report Text: KRYW 230835Z AUTO 20003KT 10SM SCT120 20/14 A3013 RMK AO2 T02000143
Loading
Personal Weather Stations






























Interactive Weather Map
Tropical Storm Tracking
New forecast layout! Learn more

10-Day Weather Forecast

Advertisements
Track Severe Weather on mobile